sensor_id;sensor_type;location;lat;lon;timestamp;temperature;humidity
23744;DHT22;12052;53.478;10.182;2023-09-19T00:01:40;16.70;99.90
23744;DHT22;12052;53.478;10.182;2023-09-19T00:04:07;16.70;99.90
23744;DHT22;12052;53.478;10.182;2023-09-19T00:06:38;16.70;99.90
23744;DHT22;12052;53.478;10.182;2023-09-19T00:09:04;16.70;99.90
23744;DHT22;12052;53.478;10.182;2023-09-19T00:11:30;16.70;99.90
23744;DHT22;12052;53.478;10.182;2023-09-19T00:13:56;16.60;99.90
23744;DHT22;12052;53.478;10.182;2023-09-19T00:16:25;16.70;99.90
23744;DHT22;12052;53.478;10.182;2023-09-19T00:18:51;16.70;99.90
23744;DHT22;12052;53.478;10.182;2023-09-19T00:21:16;16.70;99.90
23744;DHT22;12052;53.478;10.182;2023-09-19T00:23:42;16.70;99.90
23744;DHT22;12052;53.478;10.182;2023-09-19T00:26:07;16.70;99.90
23744;DHT22;12052;53.478;10.182;2023-09-19T00:28:33;16.70;99.90
23744;DHT22;12052;53.478;10.182;2023-09-19T00:30:59;16.70;99.90
23744;DHT22;12052;53.478;10.182;2023-09-19T00:33:27;16.70;99.90
23744;DHT22;12052;53.478;10.182;2023-09-19T00:35:55;16.70;99.90
23744;DHT22;12052;53.478;10.182;2023-09-19T00:38:22;16.70;99.90
23744;DHT22;12052;53.478;10.182;2023-09-19T00:40:52;16.60;99.90
23744;DHT22;12052;53.478;10.182;2023-09-19T00:43:18;16.60;99.90
23744;DHT22;12052;53.478;10.182;2023-09-19T00:45:46;16.60;99.90
23744;DHT22;12052;53.478;10.182;2023-09-19T00:48:14;16.60;99.90
23744;DHT22;12052;53.478;10.182;2023-09-19T00:50:41;16.50;99.90
23744;DHT22;12052;53.478;10.182;2023-09-19T00:53:08;16.60;99.90
23744;DHT22;12052;53.478;10.182;2023-09-19T00:55:38;16.60;99.90
23744;DHT22;12052;53.478;10.182;2023-09-19T00:58:05;16.60;99.90
23744;DHT22;12052;53.478;10.182;2023-09-19T01:00:36;16.60;99.90
23744;DHT22;12052;53.478;10.182;2023-09-19T01:03:02;16.60;99.90
23744;DHT22;12052;53.478;10.182;2023-09-19T01:05:28;16.60;99.90
23744;DHT22;12052;53.478;10.182;2023-09-19T01:07:55;16.60;99.90
23744;DHT22;12052;53.478;10.182;2023-09-19T01:10:21;16.50;99.90
23744;DHT22;12052;53.478;10.182;2023-09-19T01:15:45;16.50;99.90
23744;DHT22;12052;53.478;10.182;2023-09-19T01:24:00;16.50;99.90
23744;DHT22;12052;53.478;10.182;2023-09-19T01:29:41;16.50;99.90
23744;DHT22;12052;53.478;10.182;2023-09-19T01:32:10;16.50;99.90
23744;DHT22;12052;53.478;10.182;2023-09-19T01:34:56;16.50;99.90
23744;DHT22;12052;53.478;10.182;2023-09-19T01:37:24;16.50;99.90
23744;DHT22;12052;53.478;10.182;2023-09-19T01:40:04;16.50;99.90
23744;DHT22;12052;53.478;10.182;2023-09-19T01:43:00;16.60;99.90
23744;DHT22;12052;53.478;10.182;2023-09-19T01:45:47;16.60;99.90
23744;DHT22;12052;53.478;10.182;2023-09-19T01:48:30;16.60;99.90
23744;DHT22;12052;53.478;10.182;2023-09-19T01:51:02;16.60;99.90
23744;DHT22;12052;53.478;10.182;2023-09-19T01:53:51;16.70;99.90
23744;DHT22;12052;53.478;10.182;2023-09-19T01:56:28;16.70;99.90
23744;DHT22;12052;53.478;10.182;2023-09-19T01:58:57;16.70;99.90
23744;DHT22;12052;53.478;10.182;2023-09-19T02:01:26;16.60;99.90
23744;DHT22;12052;53.478;10.182;2023-09-19T02:03:53;16.60;99.90
23744;DHT22;12052;53.478;10.182;2023-09-19T02:06:19;16.60;99.90
23744;DHT22;12052;53.478;10.182;2023-09-19T02:08:45;16.60;99.90
23744;DHT22;12052;53.478;10.182;2023-09-19T02:11:11;16.60;99.90
23744;DHT22;12052;53.478;10.182;2023-09-19T02:13:38;16.50;99.90
23744;DHT22;12052;53.478;10.182;2023-09-19T02:16:05;16.50;99.90
23744;DHT22;12052;53.478;10.182;2023-09-19T02:18:30;16.50;99.90
23744;DHT22;12052;53.478;10.182;2023-09-19T02:20:56;16.60;99.90
23744;DHT22;12052;53.478;10.182;2023-09-19T02:23:24;16.50;99.90
23744;DHT22;12052;53.478;10.182;2023-09-19T02:25:53;16.50;99.90
23744;DHT22;12052;53.478;10.182;2023-09-19T02:28:19;16.50;99.90
23744;DHT22;12052;53.478;10.182;2023-09-19T02:30:48;16.50;99.90
23744;DHT22;12052;53.478;10.182;2023-09-19T02:33:14;16.50;99.90
23744;DHT22;12052;53.478;10.182;2023-09-19T02:35:40;16.50;99.90
23744;DHT22;12052;53.478;10.182;2023-09-19T02:38:06;16.40;99.90
23744;DHT22;12052;53.478;10.182;2023-09-19T02:40:33;16.40;99.90
23744;DHT22;12052;53.478;10.182;2023-09-19T02:43:01;16.40;99.90
23744;DHT22;12052;53.478;10.182;2023-09-19T02:45:27;16.30;99.90
23744;DHT22;12052;53.478;10.182;2023-09-19T02:47:53;16.40;99.90
23744;DHT22;12052;53.478;10.182;2023-09-19T02:50:20;16.30;99.90
23744;DHT22;12052;53.478;10.182;2023-09-19T02:52:46;16.30;99.90
23744;DHT22;12052;53.478;10.182;2023-09-19T02:55:17;16.30;99.90
23744;DHT22;12052;53.478;10.182;2023-09-19T02:57:51;16.30;99.90
23744;DHT22;12052;53.478;10.182;2023-09-19T03:00:18;16.30;99.90
23744;DHT22;12052;53.478;10.182;2023-09-19T03:02:52;16.20;99.90
23744;DHT22;12052;53.478;10.182;2023-09-19T03:05:18;16.20;99.90
23744;DHT22;12052;53.478;10.182;2023-09-19T03:07:44;16.20;99.90
23744;DHT22;12052;53.478;10.182;2023-09-19T03:10:12;16.20;99.90
23744;DHT22;12052;53.478;10.182;2023-09-19T03:12:38;16.10;99.90
23744;DHT22;12052;53.478;10.182;2023-09-19T03:15:05;16.10;99.90
23744;DHT22;12052;53.478;10.182;2023-09-19T03:17:31;16.10;99.90
23744;DHT22;12052;53.478;10.182;2023-09-19T03:19:58;16.10;99.90
23744;DHT22;12052;53.478;10.182;2023-09-19T03:22:23;16.10;99.90
23744;DHT22;12052;53.478;10.182;2023-09-19T03:24:50;16.10;99.90
23744;DHT22;12052;53.478;10.182;2023-09-19T03:27:15;16.10;99.90
23744;DHT22;12052;53.478;10.182;2023-09-19T03:29:42;16.10;99.90
23744;DHT22;12052;53.478;10.182;2023-09-19T03:32:08;16.00;99.90
23744;DHT22;12052;53.478;10.182;2023-09-19T03:34:37;16.10;99.90
23744;DHT22;12052;53.478;10.182;2023-09-19T03:37:09;16.10;99.90
23744;DHT22;12052;53.478;10.182;2023-09-19T03:39:34;16.00;99.90
23744;DHT22;12052;53.478;10.182;2023-09-19T03:42:01;16.10;99.90
23744;DHT22;12052;53.478;10.182;2023-09-19T03:44:26;16.00;99.90
23744;DHT22;12052;53.478;10.182;2023-09-19T03:46:52;15.90;99.90
23744;DHT22;12052;53.478;10.182;2023-09-19T03:49:17;15.90;99.90
23744;DHT22;12052;53.478;10.182;2023-09-19T03:51:44;15.90;99.90
23744;DHT22;12052;53.478;10.182;2023-09-19T03:54:10;15.80;99.90
23744;DHT22;12052;53.478;10.182;2023-09-19T03:56:35;15.80;99.90
23744;DHT22;12052;53.478;10.182;2023-09-19T03:59:01;15.80;99.90
23744;DHT22;12052;53.478;10.182;2023-09-19T04:01:26;15.70;99.90
23744;DHT22;12052;53.478;10.182;2023-09-19T04:03:53;15.70;99.90
23744;DHT22;12052;53.478;10.182;2023-09-19T04:06:19;15.60;99.90
23744;DHT22;12052;53.478;10.182;2023-09-19T04:08:44;15.60;99.90
23744;DHT22;12052;53.478;10.182;2023-09-19T04:11:11;15.60;99.90
23744;DHT22;12052;53.478;10.182;2023-09-19T04:13:37;15.50;99.90
23744;DHT22;12052;53.478;10.182;2023-09-19T04:16:03;15.40;99.90
23744;DHT22;12052;53.478;10.182;2023-09-19T04:18:35;15.30;99.90
23744;DHT22;12052;53.478;10.182;2023-09-19T04:21:03;15.30;99.90
23744;DHT22;12052;53.478;10.182;2023-09-19T04:23:31;15.30;99.90
23744;DHT22;12052;53.478;10.182;2023-09-19T04:25:57;15.20;99.90
23744;DHT22;12052;53.478;10.182;2023-09-19T04:28:23;15.10;99.90
23744;DHT22;12052;53.478;10.182;2023-09-19T04:30:49;15.10;99.90
23744;DHT22;12052;53.478;10.182;2023-09-19T04:33:15;15.10;99.90
23744;DHT22;12052;53.478;10.182;2023-09-19T04:35:41;15.00;99.90
23744;DHT22;12052;53.478;10.182;2023-09-19T04:38:08;15.00;99.90
23744;DHT22;12052;53.478;10.182;2023-09-19T04:40:33;14.90;99.90
23744;DHT22;12052;53.478;10.182;2023-09-19T04:42:59;14.90;99.90
23744;DHT22;12052;53.478;10.182;2023-09-19T04:45:26;14.80;99.90
23744;DHT22;12052;53.478;10.182;2023-09-19T04:47:52;14.80;99.90
23744;DHT22;12052;53.478;10.182;2023-09-19T04:50:18;14.70;99.90
23744;DHT22;12052;53.478;10.182;2023-09-19T04:52:44;14.70;99.90
23744;DHT22;12052;53.478;10.182;2023-09-19T04:55:14;14.70;99.90
23744;DHT22;12052;53.478;10.182;2023-09-19T04:57:50;14.70;99.90
23744;DHT22;12052;53.478;10.182;2023-09-19T05:00:19;14.60;99.90
23744;DHT22;12052;53.478;10.182;2023-09-19T05:02:53;14.60;99.90
23744;DHT22;12052;53.478;10.182;2023-09-19T05:05:20;14.60;99.90
23744;DHT22;12052;53.478;10.182;2023-09-19T05:07:47;14.60;99.90
23744;DHT22;12052;53.478;10.182;2023-09-19T05:10:13;14.60;99.90
23744;DHT22;12052;53.478;10.182;2023-09-19T05:12:40;14.50;99.90
23744;DHT22;12052;53.478;10.182;2023-09-19T05:15:06;14.50;99.90
23744;DHT22;12052;53.478;10.182;2023-09-19T05:17:36;14.50;99.90
23744;DHT22;12052;53.478;10.182;2023-09-19T05:20:02;14.50;99.90
23744;DHT22;12052;53.478;10.182;2023-09-19T05:22:31;14.50;99.90
23744;DHT22;12052;53.478;10.182;2023-09-19T05:24:58;14.50;99.90
23744;DHT22;12052;53.478;10.182;2023-09-19T05:27:24;14.50;99.90
23744;DHT22;12052;53.478;10.182;2023-09-19T05:29:49;14.50;99.90
23744;DHT22;12052;53.478;10.182;2023-09-19T05:32:18;14.50;99.90
23744;DHT22;12052;53.478;10.182;2023-09-19T05:34:45;14.50;99.90
23744;DHT22;12052;53.478;10.182;2023-09-19T05:37:13;14.40;99.90
23744;DHT22;12052;53.478;10.182;2023-09-19T05:39:41;14.40;99.90
23744;DHT22;12052;53.478;10.182;2023-09-19T05:42:06;14.40;99.90
23744;DHT22;12052;53.478;10.182;2023-09-19T05:44:33;14.40;99.90
23744;DHT22;12052;53.478;10.182;2023-09-19T05:46:59;14.30;99.90
23744;DHT22;12052;53.478;10.182;2023-09-19T05:49:25;14.30;99.90
23744;DHT22;12052;53.478;10.182;2023-09-19T05:51:50;14.40;99.90
23744;DHT22;12052;53.478;10.182;2023-09-19T05:54:19;14.40;99.90
23744;DHT22;12052;53.478;10.182;2023-09-19T05:56:45;14.40;99.90
23744;DHT22;12052;53.478;10.182;2023-09-19T05:59:12;14.50;99.90
23744;DHT22;12052;53.478;10.182;2023-09-19T06:01:42;14.60;99.90
23744;DHT22;12052;53.478;10.182;2023-09-19T06:04:07;14.60;99.90
23744;DHT22;12052;53.478;10.182;2023-09-19T06:06:33;14.60;99.90
23744;DHT22;12052;53.478;10.182;2023-09-19T06:09:04;14.70;99.90
23744;DHT22;12052;53.478;10.182;2023-09-19T06:11:31;14.90;99.90
23744;DHT22;12052;53.478;10.182;2023-09-19T06:14:03;15.00;99.90
23744;DHT22;12052;53.478;10.182;2023-09-19T06:16:29;15.00;99.90
23744;DHT22;12052;53.478;10.182;2023-09-19T06:18:55;15.10;99.90
23744;DHT22;12052;53.478;10.182;2023-09-19T06:21:22;15.30;99.90
23744;DHT22;12052;53.478;10.182;2023-09-19T06:23:48;15.30;99.90
23744;DHT22;12052;53.478;10.182;2023-09-19T06:26:14;15.40;99.90
23744;DHT22;12052;53.478;10.182;2023-09-19T06:28:40;15.50;99.90
23744;DHT22;12052;53.478;10.182;2023-09-19T06:31:08;15.50;99.90
23744;DHT22;12052;53.478;10.182;2023-09-19T06:33:36;15.50;99.90
23744;DHT22;12052;53.478;10.182;2023-09-19T06:36:04;15.50;99.90
23744;DHT22;12052;53.478;10.182;2023-09-19T06:38:30;15.70;99.90
23744;DHT22;12052;53.478;10.182;2023-09-19T06:40:56;15.70;99.90
23744;DHT22;12052;53.478;10.182;2023-09-19T06:43:23;15.70;99.90
23744;DHT22;12052;53.478;10.182;2023-09-19T06:45:49;15.80;99.90
23744;DHT22;12052;53.478;10.182;2023-09-19T06:48:17;15.70;99.90
23744;DHT22;12052;53.478;10.182;2023-09-19T06:50:43;15.70;99.90
23744;DHT22;12052;53.478;10.182;2023-09-19T06:53:10;15.80;99.90
23744;DHT22;12052;53.478;10.182;2023-09-19T06:55:36;15.80;99.90
23744;DHT22;12052;53.478;10.182;2023-09-19T06:58:02;15.90;99.90
23744;DHT22;12052;53.478;10.182;2023-09-19T07:00:27;16.00;99.90
23744;DHT22;12052;53.478;10.182;2023-09-19T07:03:03;15.90;99.90
23744;DHT22;12052;53.478;10.182;2023-09-19T07:05:32;15.90;99.90
23744;DHT22;12052;53.478;10.182;2023-09-19T07:07:59;15.80;99.90
23744;DHT22;12052;53.478;10.182;2023-09-19T07:10:25;15.90;99.90
23744;DHT22;12052;53.478;10.182;2023-09-19T07:13:02;15.90;99.90
23744;DHT22;12052;53.478;10.182;2023-09-19T07:15:29;16.00;99.90
23744;DHT22;12052;53.478;10.182;2023-09-19T07:17:56;16.00;99.90
23744;DHT22;12052;53.478;10.182;2023-09-19T07:20:23;16.10;99.90
23744;DHT22;12052;53.478;10.182;2023-09-19T07:22:52;16.10;99.90
23744;DHT22;12052;53.478;10.182;2023-09-19T07:25:17;16.10;99.90
23744;DHT22;12052;53.478;10.182;2023-09-19T07:27:43;16.10;99.90
23744;DHT22;12052;53.478;10.182;2023-09-19T07:30:10;16.10;99.90
23744;DHT22;12052;53.478;10.182;2023-09-19T07:32:37;16.20;99.90
23744;DHT22;12052;53.478;10.182;2023-09-19T07:35:04;16.20;99.90
23744;DHT22;12052;53.478;10.182;2023-09-19T07:37:31;16.20;99.90
23744;DHT22;12052;53.478;10.182;2023-09-19T07:39:59;16.20;99.90
23744;DHT22;12052;53.478;10.182;2023-09-19T07:42:24;16.30;99.90
23744;DHT22;12052;53.478;10.182;2023-09-19T07:44:51;16.30;99.90
23744;DHT22;12052;53.478;10.182;2023-09-19T07:47:17;16.40;99.90
23744;DHT22;12052;53.478;10.182;2023-09-19T07:49:42;16.40;99.90
23744;DHT22;12052;53.478;10.182;2023-09-19T07:52:09;16.40;99.90
23744;DHT22;12052;53.478;10.182;2023-09-19T07:54:35;16.40;99.90
23744;DHT22;12052;53.478;10.182;2023-09-19T07:57:02;16.40;99.90
23744;DHT22;12052;53.478;10.182;2023-09-19T07:59:27;16.30;99.90
23744;DHT22;12052;53.478;10.182;2023-09-19T08:01:53;16.30;99.90
23744;DHT22;12052;53.478;10.182;2023-09-19T08:04:19;16.30;99.90
23744;DHT22;12052;53.478;10.182;2023-09-19T08:06:45;16.20;99.90
23744;DHT22;12052;53.478;10.182;2023-09-19T08:09:11;16.20;99.90
23744;DHT22;12052;53.478;10.182;2023-09-19T08:11:37;16.10;99.90
23744;DHT22;12052;53.478;10.182;2023-09-19T08:14:04;16.20;99.90
23744;DHT22;12052;53.478;10.182;2023-09-19T08:16:31;16.10;99.90
23744;DHT22;12052;53.478;10.182;2023-09-19T08:18:57;16.10;99.90
23744;DHT22;12052;53.478;10.182;2023-09-19T08:21:22;16.20;99.90
23744;DHT22;12052;53.478;10.182;2023-09-19T08:23:49;16.20;99.90
23744;DHT22;12052;53.478;10.182;2023-09-19T08:26:15;16.30;99.90
23744;DHT22;12052;53.478;10.182;2023-09-19T08:28:41;16.30;99.90
23744;DHT22;12052;53.478;10.182;2023-09-19T08:31:07;16.30;99.90
23744;DHT22;12052;53.478;10.182;2023-09-19T08:33:35;16.30;99.90
23744;DHT22;12052;53.478;10.182;2023-09-19T08:36:04;16.40;99.90
23744;DHT22;12052;53.478;10.182;2023-09-19T08:38:34;16.50;99.90
23744;DHT22;12052;53.478;10.182;2023-09-19T08:41:04;16.40;99.90
23744;DHT22;12052;53.478;10.182;2023-09-19T08:43:30;16.50;99.90
23744;DHT22;12052;53.478;10.182;2023-09-19T08:46:20;16.40;99.90
23744;DHT22;12052;53.478;10.182;2023-09-19T08:51:54;16.50;99.90
23744;DHT22;12052;53.478;10.182;2023-09-19T08:54:29;16.50;99.90
23744;DHT22;12052;53.478;10.182;2023-09-19T08:57:00;16.60;99.90
23744;DHT22;12052;53.478;10.182;2023-09-19T08:59:33;16.70;99.90
23744;DHT22;12052;53.478;10.182;2023-09-19T09:02:01;16.60;99.90
23744;DHT22;12052;53.478;10.182;2023-09-19T09:04:29;16.60;99.90
23744;DHT22;12052;53.478;10.182;2023-09-19T09:06:56;16.70;99.90
23744;DHT22;12052;53.478;10.182;2023-09-19T09:09:23;16.70;99.90
23744;DHT22;12052;53.478;10.182;2023-09-19T09:11:50;16.80;99.90
23744;DHT22;12052;53.478;10.182;2023-09-19T09:14:19;16.80;99.90
23744;DHT22;12052;53.478;10.182;2023-09-19T09:16:46;16.80;99.90
23744;DHT22;12052;53.478;10.182;2023-09-19T09:19:14;16.80;99.90
23744;DHT22;12052;53.478;10.182;2023-09-19T09:21:40;16.80;99.90
23744;DHT22;12052;53.478;10.182;2023-09-19T09:24:28;16.90;99.90
23744;DHT22;12052;53.478;10.182;2023-09-19T09:26:59;17.00;99.90
23744;DHT22;12052;53.478;10.182;2023-09-19T09:29:45;17.00;99.90
23744;DHT22;12052;53.478;10.182;2023-09-19T09:32:31;17.10;99.90
23744;DHT22;12052;53.478;10.182;2023-09-19T09:35:01;17.30;99.90
23744;DHT22;12052;53.478;10.182;2023-09-19T09:37:28;17.40;99.90
23744;DHT22;12052;53.478;10.182;2023-09-19T09:39:57;17.60;99.90
23744;DHT22;12052;53.478;10.182;2023-09-19T09:42:31;17.70;99.90
23744;DHT22;12052;53.478;10.182;2023-09-19T09:47:46;17.90;99.90
23744;DHT22;12052;53.478;10.182;2023-09-19T09:50:31;18.10;99.90
23744;DHT22;12052;53.478;10.182;2023-09-19T09:53:26;18.10;99.90
23744;DHT22;12052;53.478;10.182;2023-09-19T09:56:08;18.20;99.90
23744;DHT22;12052;53.478;10.182;2023-09-19T10:01:13;18.30;99.90
23744;DHT22;12052;53.478;10.182;2023-09-19T10:03:42;18.30;99.90
23744;DHT22;12052;53.478;10.182;2023-09-19T10:06:17;18.40;99.90
23744;DHT22;12052;53.478;10.182;2023-09-19T10:09:05;18.40;99.90
23744;DHT22;12052;53.478;10.182;2023-09-19T10:11:43;18.40;99.90
23744;DHT22;12052;53.478;10.182;2023-09-19T10:14:11;18.40;99.90
23744;DHT22;12052;53.478;10.182;2023-09-19T10:16:45;18.40;99.90
23744;DHT22;12052;53.478;10.182;2023-09-19T10:19:18;18.30;99.90
23744;DHT22;12052;53.478;10.182;2023-09-19T10:21:48;18.30;99.90
23744;DHT22;12052;53.478;10.182;2023-09-19T10:24:15;18.30;99.90
23744;DHT22;12052;53.478;10.182;2023-09-19T10:26:41;18.20;99.90
23744;DHT22;12052;53.478;10.182;2023-09-19T10:29:09;18.30;99.90
23744;DHT22;12052;53.478;10.182;2023-09-19T10:31:37;18.30;99.90
23744;DHT22;12052;53.478;10.182;2023-09-19T10:34:06;18.20;99.90
23744;DHT22;12052;53.478;10.182;2023-09-19T10:36:36;18.40;99.90
23744;DHT22;12052;53.478;10.182;2023-09-19T10:39:03;18.50;99.90
23744;DHT22;12052;53.478;10.182;2023-09-19T10:41:32;18.60;99.90
23744;DHT22;12052;53.478;10.182;2023-09-19T10:44:03;18.80;99.90
23744;DHT22;12052;53.478;10.182;2023-09-19T10:46:31;18.80;99.90
23744;DHT22;12052;53.478;10.182;2023-09-19T10:49:01;18.90;99.90
23744;DHT22;12052;53.478;10.182;2023-09-19T10:51:31;18.90;99.90
23744;DHT22;12052;53.478;10.182;2023-09-19T10:54:12;18.80;99.90
23744;DHT22;12052;53.478;10.182;2023-09-19T10:56:43;18.80;99.90
23744;DHT22;12052;53.478;10.182;2023-09-19T10:59:16;18.60;99.90
23744;DHT22;12052;53.478;10.182;2023-09-19T11:01:53;18.50;99.90
23744;DHT22;12052;53.478;10.182;2023-09-19T11:04:35;18.40;99.90
23744;DHT22;12052;53.478;10.182;2023-09-19T11:07:10;18.30;99.90
23744;DHT22;12052;53.478;10.182;2023-09-19T11:15:02;18.50;99.90
23744;DHT22;12052;53.478;10.182;2023-09-19T11:30:49;18.50;99.90
23744;DHT22;12052;53.478;10.182;2023-09-19T11:33:22;18.40;99.90
23744;DHT22;12052;53.478;10.182;2023-09-19T11:36:16;18.40;99.90
23744;DHT22;12052;53.478;10.182;2023-09-19T11:41:36;18.40;99.90
23744;DHT22;12052;53.478;10.182;2023-09-19T11:46:33;18.70;99.90
23744;DHT22;12052;53.478;10.182;2023-09-19T11:49:08;18.80;99.90
23744;DHT22;12052;53.478;10.182;2023-09-19T11:51:40;18.80;99.90
23744;DHT22;12052;53.478;10.182;2023-09-19T11:54:11;18.80;99.90
23744;DHT22;12052;53.478;10.182;2023-09-19T11:56:43;18.80;99.90
23744;DHT22;12052;53.478;10.182;2023-09-19T11:59:11;18.90;99.90
23744;DHT22;12052;53.478;10.182;2023-09-19T12:01:38;18.90;99.90
23744;DHT22;12052;53.478;10.182;2023-09-19T12:04:11;18.90;99.90
23744;DHT22;12052;53.478;10.182;2023-09-19T12:06:37;18.90;99.90
23744;DHT22;12052;53.478;10.182;2023-09-19T12:09:12;18.90;99.90
23744;DHT22;12052;53.478;10.182;2023-09-19T12:11:42;19.00;99.90
23744;DHT22;12052;53.478;10.182;2023-09-19T12:14:09;19.10;99.90
23744;DHT22;12052;53.478;10.182;2023-09-19T12:16:35;18.80;99.90
23744;DHT22;12052;53.478;10.182;2023-09-19T12:19:20;18.90;99.90
23744;DHT22;12052;53.478;10.182;2023-09-19T12:22:00;18.90;99.90
23744;DHT22;12052;53.478;10.182;2023-09-19T12:24:34;18.90;99.90
23744;DHT22;12052;53.478;10.182;2023-09-19T12:27:05;19.00;99.90
23744;DHT22;12052;53.478;10.182;2023-09-19T12:29:41;18.90;99.90
23744;DHT22;12052;53.478;10.182;2023-09-19T12:32:07;19.00;99.90
23744;DHT22;12052;53.478;10.182;2023-09-19T12:34:33;19.00;99.90
23744;DHT22;12052;53.478;10.182;2023-09-19T12:37:09;19.00;99.90
23744;DHT22;12052;53.478;10.182;2023-09-19T12:39:39;19.00;99.90
23744;DHT22;12052;53.478;10.182;2023-09-19T12:42:08;18.90;99.90
23744;DHT22;12052;53.478;10.182;2023-09-19T12:44:36;19.00;99.90
23744;DHT22;12052;53.478;10.182;2023-09-19T12:47:16;19.10;99.90
23744;DHT22;12052;53.478;10.182;2023-09-19T12:50:08;19.10;99.90
23744;DHT22;12052;53.478;10.182;2023-09-19T12:52:46;19.10;99.90
23744;DHT22;12052;53.478;10.182;2023-09-19T12:55:40;19.20;99.90
23744;DHT22;12052;53.478;10.182;2023-09-19T12:58:14;19.10;99.90
23744;DHT22;12052;53.478;10.182;2023-09-19T13:00:45;19.00;99.90
23744;DHT22;12052;53.478;10.182;2023-09-19T13:03:31;19.10;99.90
23744;DHT22;12052;53.478;10.182;2023-09-19T13:06:03;19.10;99.90
23744;DHT22;12052;53.478;10.182;2023-09-19T13:08:31;19.20;99.90
23744;DHT22;12052;53.478;10.182;2023-09-19T13:11:11;19.30;99.90
23744;DHT22;12052;53.478;10.182;2023-09-19T13:13:43;19.60;99.90
23744;DHT22;12052;53.478;10.182;2023-09-19T13:16:10;19.80;99.90
23744;DHT22;12052;53.478;10.182;2023-09-19T13:18:47;19.80;99.90
23744;DHT22;12052;53.478;10.182;2023-09-19T13:21:16;19.70;99.90
23744;DHT22;12052;53.478;10.182;2023-09-19T13:23:52;19.80;99.90
23744;DHT22;12052;53.478;10.182;2023-09-19T13:26:18;19.80;99.90
23744;DHT22;12052;53.478;10.182;2023-09-19T13:28:44;19.80;99.90
23744;DHT22;12052;53.478;10.182;2023-09-19T13:31:10;19.70;99.90
23744;DHT22;12052;53.478;10.182;2023-09-19T13:33:47;19.70;99.90
23744;DHT22;12052;53.478;10.182;2023-09-19T13:36:13;19.60;99.90
23744;DHT22;12052;53.478;10.182;2023-09-19T13:38:42;19.70;99.90
23744;DHT22;12052;53.478;10.182;2023-09-19T13:41:12;19.60;99.90
23744;DHT22;12052;53.478;10.182;2023-09-19T13:43:38;19.60;99.90
23744;DHT22;12052;53.478;10.182;2023-09-19T13:46:04;19.80;99.90
23744;DHT22;12052;53.478;10.182;2023-09-19T13:48:30;19.70;99.90
23744;DHT22;12052;53.478;10.182;2023-09-19T13:50:56;19.90;99.90
23744;DHT22;12052;53.478;10.182;2023-09-19T13:53:22;19.90;99.90
23744;DHT22;12052;53.478;10.182;2023-09-19T13:55:47;20.00;99.90
23744;DHT22;12052;53.478;10.182;2023-09-19T13:58:16;20.00;99.90
23744;DHT22;12052;53.478;10.182;2023-09-19T14:00:42;20.10;99.90
23744;DHT22;12052;53.478;10.182;2023-09-19T14:03:08;20.10;99.90
23744;DHT22;12052;53.478;10.182;2023-09-19T14:05:33;20.10;99.90
23744;DHT22;12052;53.478;10.182;2023-09-19T14:07:59;20.00;99.90
23744;DHT22;12052;53.478;10.182;2023-09-19T14:10:25;20.10;99.90
23744;DHT22;12052;53.478;10.182;2023-09-19T14:12:55;20.10;99.90
23744;DHT22;12052;53.478;10.182;2023-09-19T14:15:21;20.10;99.90
23744;DHT22;12052;53.478;10.182;2023-09-19T14:17:58;20.00;99.90
23744;DHT22;12052;53.478;10.182;2023-09-19T14:20:25;20.00;99.90
23744;DHT22;12052;53.478;10.182;2023-09-19T14:22:55;20.00;99.90
23744;DHT22;12052;53.478;10.182;2023-09-19T14:25:20;20.00;99.90
23744;DHT22;12052;53.478;10.182;2023-09-19T14:27:47;20.00;99.90
23744;DHT22;12052;53.478;10.182;2023-09-19T14:30:13;19.90;99.90
23744;DHT22;12052;53.478;10.182;2023-09-19T14:32:39;20.00;99.90
23744;DHT22;12052;53.478;10.182;2023-09-19T14:35:06;20.10;99.90
23744;DHT22;12052;53.478;10.182;2023-09-19T14:37:31;20.00;99.90
23744;DHT22;12052;53.478;10.182;2023-09-19T14:39:57;19.90;99.90
23744;DHT22;12052;53.478;10.182;2023-09-19T14:42:23;19.80;99.90
23744;DHT22;12052;53.478;10.182;2023-09-19T14:44:48;19.70;99.90
23744;DHT22;12052;53.478;10.182;2023-09-19T14:47:15;19.50;99.90
23744;DHT22;12052;53.478;10.182;2023-09-19T14:49:42;19.50;99.90
23744;DHT22;12052;53.478;10.182;2023-09-19T14:52:09;19.50;99.90
23744;DHT22;12052;53.478;10.182;2023-09-19T14:54:34;19.40;99.90
23744;DHT22;12052;53.478;10.182;2023-09-19T14:57:00;19.30;99.90
23744;DHT22;12052;53.478;10.182;2023-09-19T14:59:33;19.30;99.90
23744;DHT22;12052;53.478;10.182;2023-09-19T15:01:59;19.40;99.90
23744;DHT22;12052;53.478;10.182;2023-09-19T15:04:25;19.50;99.90
23744;DHT22;12052;53.478;10.182;2023-09-19T15:06:51;19.40;99.90
23744;DHT22;12052;53.478;10.182;2023-09-19T15:09:23;19.50;99.90
23744;DHT22;12052;53.478;10.182;2023-09-19T15:11:53;19.40;99.90
23744;DHT22;12052;53.478;10.182;2023-09-19T15:14:19;19.50;99.90
23744;DHT22;12052;53.478;10.182;2023-09-19T15:16:45;19.40;99.90
23744;DHT22;12052;53.478;10.182;2023-09-19T15:19:10;19.30;99.90
23744;DHT22;12052;53.478;10.182;2023-09-19T15:21:36;19.30;99.90
23744;DHT22;12052;53.478;10.182;2023-09-19T15:24:03;19.20;99.90
23744;DHT22;12052;53.478;10.182;2023-09-19T15:26:29;19.10;99.90
23744;DHT22;12052;53.478;10.182;2023-09-19T15:28:55;19.10;99.90
23744;DHT22;12052;53.478;10.182;2023-09-19T15:31:22;19.10;99.90
23744;DHT22;12052;53.478;10.182;2023-09-19T15:33:47;19.20;99.90
23744;DHT22;12052;53.478;10.182;2023-09-19T15:36:14;19.10;99.90
23744;DHT22;12052;53.478;10.182;2023-09-19T15:39:02;19.20;99.90
23744;DHT22;12052;53.478;10.182;2023-09-19T15:41:34;19.20;99.90
23744;DHT22;12052;53.478;10.182;2023-09-19T15:44:01;19.20;99.90
23744;DHT22;12052;53.478;10.182;2023-09-19T15:46:29;19.20;99.90
23744;DHT22;12052;53.478;10.182;2023-09-19T15:48:56;19.30;99.90
23744;DHT22;12052;53.478;10.182;2023-09-19T15:51:22;19.30;99.90
23744;DHT22;12052;53.478;10.182;2023-09-19T15:53:49;19.20;99.90
23744;DHT22;12052;53.478;10.182;2023-09-19T15:56:16;19.20;99.90
23744;DHT22;12052;53.478;10.182;2023-09-19T15:58:45;19.20;99.90
23744;DHT22;12052;53.478;10.182;2023-09-19T16:01:11;19.10;99.90
23744;DHT22;12052;53.478;10.182;2023-09-19T16:03:39;19.10;99.90
23744;DHT22;12052;53.478;10.182;2023-09-19T16:06:12;19.10;99.90
23744;DHT22;12052;53.478;10.182;2023-09-19T16:08:45;19.10;99.90
23744;DHT22;12052;53.478;10.182;2023-09-19T16:11:12;19.10;99.90